Terminal Aerodrome Forecast
Issued by NWS Twin Cities, MN

Home | Current Version | Previous Version | Text Only | Print | Product List | Glossary Off
Versions: 1 2 3 4 5 6 7 8 9 10 11 12 13 14 15 16 17 18 19 20 21 22 23 24 25 26

000
FTUS43 KMPX 232333
TAFMSP
TAF
KMSP 232333Z 2400/2506 VRB02KT P6SM OVC016
     FM240300 00000KT P6SM OVC012
     FM240800 VRB02KT 5SM BR OVC010
     FM241600 09004KT P6SM OVC012
     FM242300 06009KT 2SM -SN BR OVC010
     FM250200 04012KT 3/4SM -SN BR VV008=

USA.gov is the U.S. government's official web portal to all federal, state and local government web resources and services.